Eielson Air Force Base
PAEI : now visible

Airfield :











YOU CAN JOIN US ON...

 
LOGIN :

Register | Disclaimer

   EN    FR    IT 

 









Legend :    VFR   Marginal VFR   IFR   Intensive IFR   Very Intensive IFR
Visi :
Ceiling :
>= 8 km
>= 3000ft
5 to 8 km
1000 to 3000 ft
1500m to 5 km
500 to 1000 ft
800 to 1500m
200 to 500 ft
< 800m
< 200 ft
Symbols :   Thunderstorms  Fog  Heavy snow  Heavy precipitations  Wind > 20 kt






- Airport Elevation : 547 ft
- IATA code : EIL


PAEI - Eielson Air Force Base

CURRENT METAR :
  • 272156Z 14004KT 10SM BKN028 01/M05 A2966 RMK AO2A SLP053 T00101048 $

EXPIRED METARs :
  • 272056Z 00000KT 10SM BKN024 00/M06 A2968 RMK AO2A SLP060 T00011059 57020 $
  • 272041Z 12003KT 10SM BKN023 01/M05 A2969 RMK AO2A BKN V SCT SLP063 $
  • 272026Z 00000KT 10SM SCT023 00/M06 A2969 RMK AO2A SLP063 $
  • 271956Z 00000KT 10SM SCT022 BKN029 00/M06 A2970 RMK AO2A SLP067 T00001060 $

TAF TAF PAEI
Valid from the 27 at 22:00 until the 29 at 04:00 UTC


272200Z 2722/2904 VRB03KT 9999 BKN025 QNH2958INS
BECMG 2802/2803 VRB06KT 9999 FEW025 QNH2952INS
BECMG 2811/2812 VRB03KT 9000 BCFG SKC QNH2953INS
BECMG 2817/2818 VRB06KT 9999 NSW SCT030 QNH2957INS TX03/2723Z TNM04/2816Z
PAZA FIR / North America



MET'MAP, your aeronautical weather chart ! - Copyright ORBIFLY December 2007 - Disclaimer

ORBIFLY MET'MAP TEAM :

Programming & Development : Alexandra Zaïnal
Concept & original design : Baudouin d'Aumeries
Assistance for programming : Marc-Olivier Méhu
Technical & hardware support : Manuel Goepfert

Contact : metmap@orbifly.com




SOURCES & CREDITS :

   NOAA       Earth
Advisory